createdAt,value
2023-03-19T00:00:50.566Z,29.05
2023-03-19T00:03:36.588Z,32.83
2023-03-19T00:06:03.987Z,29.60
2023-03-19T00:08:31.360Z,32.15
2023-03-19T00:10:58.385Z,34.80
2023-03-19T00:13:27.455Z,30.13
2023-03-19T00:15:54.551Z,28.73
2023-03-19T00:18:21.970Z,30.95
2023-03-19T00:20:49.071Z,33.90
2023-03-19T00:23:16.599Z,41.33
2023-03-19T00:25:46.698Z,30.50
2023-03-19T00:28:14.375Z,31.52
2023-03-19T00:30:42.068Z,34.25
2023-03-19T00:33:10.197Z,28.52
2023-03-19T00:35:39.818Z,27.88
2023-03-19T00:38:07.472Z,29.90
2023-03-19T00:40:34.899Z,28.05
2023-03-19T00:43:02.416Z,32.00
2023-03-19T00:45:30.872Z,32.67
2023-03-19T00:47:58.515Z,31.55
2023-03-19T00:50:26.436Z,26.35
2023-03-19T00:52:53.827Z,32.33
2023-03-19T00:55:20.976Z,30.92
2023-03-19T00:57:48.298Z,29.63
2023-03-19T01:00:19.148Z,32.78
2023-03-19T01:02:46.790Z,29.88
2023-03-19T01:05:14.185Z,28.23
2023-03-19T01:07:41.571Z,31.08
2023-03-19T01:10:10.252Z,29.83
2023-03-19T01:12:37.767Z,30.42
2023-03-19T01:15:07.082Z,29.20
2023-03-19T01:17:34.504Z,30.48
2023-03-19T01:20:01.650Z,35.47
2023-03-19T01:22:29.161Z,39.45
2023-03-19T01:24:59.585Z,32.58
2023-03-19T01:27:27.421Z,28.88
2023-03-19T01:29:54.774Z,31.30
2023-03-19T01:32:48.278Z,34.28
2023-03-19T01:35:35.167Z,27.95
2023-03-19T01:38:03.493Z,28.85
2023-03-19T01:40:32.890Z,36.15
2023-03-19T01:43:12.707Z,40.67
2023-03-19T01:45:55.584Z,34.55
2023-03-19T01:48:52.819Z,37.33
2023-03-19T01:53:57.671Z,28.83
2023-03-19T01:56:49.347Z,33.67
2023-03-19T01:59:45.264Z,29.83
2023-03-19T02:02:36.965Z,34.22
2023-03-19T02:05:25.570Z,29.13
2023-03-19T02:07:58.790Z,31.20
2023-03-19T02:10:28.655Z,48.55
2023-03-19T02:12:55.756Z,71.20
2023-03-19T02:15:23.548Z,57.65
2023-03-19T02:17:50.742Z,38.75
2023-03-19T02:20:37.316Z,35.38
2023-03-19T02:23:35.238Z,31.90
2023-03-19T02:26:14.988Z,27.95
2023-03-19T02:28:45.944Z,33.97
2023-03-19T02:31:18.520Z,34.60
2023-03-19T02:33:59.287Z,36.13
2023-03-19T02:36:31.987Z,41.28
2023-03-19T02:39:02.457Z,43.17
2023-03-19T02:41:31.596Z,43.95
2023-03-19T02:44:02.011Z,37.47
2023-03-19T02:46:32.781Z,34.92
2023-03-19T02:48:59.974Z,32.55
2023-03-19T02:51:27.296Z,37.63
2023-03-19T02:53:54.436Z,39.65
2023-03-19T02:56:21.917Z,33.20
2023-03-19T02:58:49.672Z,28.95
2023-03-19T03:01:17.711Z,28.40
2023-03-19T03:03:44.945Z,30.17
2023-03-19T03:06:12.549Z,29.85
2023-03-19T03:08:39.626Z,32.50
2023-03-19T03:11:07.675Z,31.92
2023-03-19T03:13:34.997Z,33.70
2023-03-19T03:16:02.891Z,35.42
2023-03-19T03:18:30.212Z,32.70
2023-03-19T03:20:57.995Z,36.25
2023-03-19T03:23:25.140Z,32.40
2023-03-19T03:25:52.653Z,29.52
2023-03-19T03:28:20.044Z,30.45
2023-03-19T03:30:47.815Z,34.40
2023-03-19T03:33:15.814Z,30.35
2023-03-19T03:35:44.575Z,35.85
2023-03-19T03:38:11.650Z,28.30
2023-03-19T03:40:38.908Z,35.63
2023-03-19T03:43:05.920Z,38.47
2023-03-19T03:45:36.051Z,31.58
2023-03-19T03:48:03.712Z,31.33
2023-03-19T03:50:31.611Z,41.50
2023-03-19T03:53:03.828Z,39.45
2023-03-19T03:55:31.957Z,28.30
2023-03-19T03:57:59.282Z,34.42
2023-03-19T04:00:27.492Z,35.50
2023-03-19T04:02:54.532Z,34.78
2023-03-19T04:05:21.975Z,36.40
2023-03-19T04:07:52.154Z,31.30
2023-03-19T04:10:19.961Z,30.63
2023-03-19T04:12:47.712Z,39.85
2023-03-19T04:15:15.493Z,28.25
2023-03-19T04:17:45.439Z,38.30
2023-03-19T04:20:14.318Z,32.05
2023-03-19T04:22:41.725Z,34.28
2023-03-19T04:25:09.563Z,35.53
2023-03-19T04:27:38.449Z,32.22
2023-03-19T04:30:08.324Z,37.15
2023-03-19T04:32:37.056Z,35.88
2023-03-19T04:35:05.169Z,42.42
2023-03-19T04:37:32.215Z,40.70
2023-03-19T04:39:59.683Z,45.50
2023-03-19T04:42:26.850Z,36.10
2023-03-19T04:45:05.828Z,59.47
2023-03-19T04:47:34.370Z,39.80
2023-03-19T04:50:02.974Z,31.38
2023-03-19T04:52:33.390Z,31.17
2023-03-19T04:55:02.070Z,28.65
2023-03-19T04:57:31.788Z,31.15
2023-03-19T04:59:59.516Z,39.15
2023-03-19T05:02:27.359Z,28.67
2023-03-19T05:04:55.714Z,37.63
2023-03-19T05:07:23.704Z,33.72
2023-03-19T05:09:51.559Z,35.47
2023-03-19T05:12:20.342Z,32.63
2023-03-19T05:14:51.252Z,34.13
2023-03-19T05:17:23.525Z,39.50
2023-03-19T05:20:09.525Z,44.00
2023-03-19T05:22:39.482Z,38.03
2023-03-19T05:25:08.523Z,46.60
2023-03-19T05:27:36.253Z,32.78
2023-03-19T05:30:10.164Z,33.45
2023-03-19T05:32:57.688Z,27.83
2023-03-19T05:35:35.623Z,35.17
2023-03-19T05:38:05.384Z,33.30
2023-03-19T05:40:36.092Z,40.50
2023-03-19T05:43:14.707Z,44.20
2023-03-19T05:45:43.588Z,35.92
2023-03-19T05:48:19.679Z,37.22
2023-03-19T05:51:07.428Z,36.42
2023-03-19T05:53:38.657Z,34.47
2023-03-19T05:56:29.032Z,30.88
2023-03-19T05:59:22.309Z,42.53
2023-03-19T06:02:05.578Z,47.40
2023-03-19T06:04:32.943Z,35.40
2023-03-19T06:07:00.766Z,34.67
2023-03-19T06:09:28.145Z,37.15
2023-03-19T06:11:57.112Z,50.72
2023-03-19T06:15:02.393Z,41.38
2023-03-19T06:17:41.464Z,61.17
2023-03-19T06:20:13.011Z,40.15
2023-03-19T06:22:41.595Z,59.42
2023-03-19T06:25:08.813Z,54.53
2023-03-19T06:27:38.071Z,46.50
2023-03-19T06:30:26.225Z,49.35
2023-03-19T06:32:55.790Z,44.33
2023-03-19T06:35:24.428Z,43.15
2023-03-19T06:37:53.469Z,34.63
2023-03-19T06:40:20.783Z,43.80
2023-03-19T06:42:49.022Z,40.38
2023-03-19T06:45:21.545Z,32.85
2023-03-19T06:47:49.866Z,28.52
2023-03-19T06:50:18.363Z,30.77
2023-03-19T06:52:46.100Z,29.95
2023-03-19T06:55:13.372Z,42.03
2023-03-19T06:57:41.035Z,36.40
2023-03-19T07:00:11.513Z,28.63
2023-03-19T07:02:40.187Z,28.58
2023-03-19T07:05:07.634Z,31.63
2023-03-19T07:07:35.398Z,26.35
2023-03-19T07:10:02.516Z,25.05
2023-03-19T07:12:31.539Z,27.90
2023-03-19T07:14:58.788Z,30.33
2023-03-19T07:17:26.515Z,29.13
2023-03-19T07:19:53.886Z,28.92
2023-03-19T07:22:22.115Z,27.05
2023-03-19T07:24:49.272Z,30.10
2023-03-19T07:27:17.829Z,30.30
2023-03-19T07:29:45.013Z,37.05
2023-03-19T07:32:12.852Z,34.70
2023-03-19T07:34:40.615Z,31.88
2023-03-19T07:37:08.302Z,37.28
2023-03-19T07:39:35.664Z,31.65
2023-03-19T07:42:03.404Z,229.77
2023-03-19T07:44:31.268Z,54.15
2023-03-19T07:46:59.719Z,40.30
2023-03-19T07:49:29.879Z,40.75
2023-03-19T07:51:57.489Z,30.45
2023-03-19T07:54:24.602Z,31.17
2023-03-19T07:56:54.095Z,35.92
2023-03-19T07:59:21.474Z,34.20
2023-03-19T08:01:49.148Z,36.90
2023-03-19T08:04:16.603Z,34.40
2023-03-19T08:06:44.763Z,32.90
2023-03-19T08:09:11.967Z,33.45
2023-03-19T08:11:41.587Z,35.00
2023-03-19T08:14:08.870Z,53.88
2023-03-19T08:16:36.591Z,42.70
2023-03-19T08:19:04.813Z,62.78
2023-03-19T08:21:33.649Z,43.45
2023-03-19T08:24:04.800Z,48.80
2023-03-19T08:26:33.038Z,32.22
2023-03-19T08:29:00.799Z,60.05
2023-03-19T08:31:28.373Z,68.75
2023-03-19T08:33:56.194Z,33.13
2023-03-19T08:36:23.792Z,32.83
2023-03-19T08:38:54.754Z,28.63
2023-03-19T08:41:25.289Z,28.60
2023-03-19T08:43:52.623Z,35.10
2023-03-19T08:46:20.231Z,66.82
2023-03-19T08:48:47.291Z,36.42
2023-03-19T08:51:15.060Z,32.38
2023-03-19T08:53:43.204Z,34.70
2023-03-19T08:56:10.736Z,35.75
2023-03-19T08:58:37.971Z,31.40
2023-03-19T09:01:10.786Z,74.78
2023-03-19T09:03:39.380Z,55.78
2023-03-19T09:06:09.385Z,44.30
2023-03-19T09:08:38.054Z,63.03
2023-03-19T09:11:11.032Z,86.23
2023-03-19T09:13:38.193Z,47.70
2023-03-19T09:16:06.667Z,51.80
2023-03-19T09:18:34.644Z,31.42
2023-03-19T09:21:03.366Z,121.70
2023-03-19T09:23:30.820Z,70.05
2023-03-19T09:25:58.421Z,62.83
2023-03-19T09:28:25.812Z,58.70
2023-03-19T09:30:53.515Z,51.40
2023-03-19T09:33:21.485Z,44.60
2023-03-19T09:35:53.690Z,103.70
2023-03-19T09:38:22.211Z,45.78
2023-03-19T09:41:04.799Z,43.70
2023-03-19T09:43:59.541Z,57.75
2023-03-19T09:46:51.430Z,100.00
2023-03-19T09:49:28.376Z,63.22
2023-03-19T09:52:20.716Z,47.83
2023-03-19T09:54:52.536Z,101.15
2023-03-19T09:57:20.280Z,125.82
2023-03-19T09:59:48.315Z,77.88
2023-03-19T10:02:40.293Z,57.17
2023-03-19T10:05:25.884Z,90.15
2023-03-19T10:08:06.750Z,58.63
2023-03-19T10:10:50.755Z,61.92
2023-03-19T10:13:40.164Z,29.75
2023-03-19T10:16:17.102Z,34.20
2023-03-19T10:18:49.131Z,43.72
2023-03-19T10:21:42.245Z,40.47
2023-03-19T10:24:15.005Z,41.47
2023-03-19T10:26:43.907Z,27.95
2023-03-19T10:29:16.488Z,36.85
2023-03-19T10:31:46.611Z,31.80
2023-03-19T10:34:31.553Z,38.13
2023-03-19T10:37:13.106Z,35.42
2023-03-19T10:39:47.237Z,44.83
2023-03-19T10:42:45.660Z,49.88
2023-03-19T10:45:24.346Z,33.75
2023-03-19T10:47:52.852Z,27.00
2023-03-19T10:50:38.809Z,34.30
2023-03-19T10:53:15.037Z,24.50
2023-03-19T10:55:55.122Z,30.02
2023-03-19T10:58:27.990Z,24.42
2023-03-19T11:01:10.806Z,21.55
2023-03-19T11:03:51.423Z,27.42
2023-03-19T11:06:23.646Z,51.45
2023-03-19T11:08:59.038Z,35.90
2023-03-19T11:11:50.446Z,33.08
2023-03-19T11:14:25.548Z,33.08
2023-03-19T11:17:12.086Z,36.28
2023-03-19T11:19:48.945Z,26.50
2023-03-19T11:22:27.268Z,31.35
2023-03-19T11:25:01.612Z,32.72
2023-03-19T11:27:31.990Z,53.75
2023-03-19T11:29:59.346Z,51.00
2023-03-19T11:33:07.888Z,26.95
2023-03-19T11:35:41.995Z,58.90
2023-03-19T11:38:30.656Z,58.58
2023-03-19T11:41:32.657Z,24.02
2023-03-19T11:44:06.981Z,34.70
2023-03-19T11:46:59.030Z,40.87
2023-03-19T11:49:49.794Z,54.88
2023-03-19T11:52:33.596Z,57.05
2023-03-19T11:55:42.296Z,36.05
2023-03-19T11:58:42.067Z,114.15
2023-03-19T12:01:33.492Z,81.97
2023-03-19T12:04:11.500Z,82.95
2023-03-19T12:06:50.414Z,66.00
2023-03-19T12:09:38.978Z,84.07
2023-03-19T12:12:27.112Z,46.05
2023-03-19T12:15:04.881Z,35.75
2023-03-19T12:17:43.844Z,31.23
2023-03-19T12:20:26.996Z,28.23
2023-03-19T12:23:06.610Z,32.65
2023-03-19T12:26:08.974Z,55.45
2023-03-19T12:28:42.981Z,27.02
2023-03-19T12:31:22.051Z,38.72
2023-03-19T12:33:59.137Z,36.08
2023-03-19T12:36:32.158Z,22.25
2023-03-19T12:39:05.335Z,59.33
2023-03-19T12:41:36.469Z,28.15
2023-03-19T12:44:18.701Z,26.45
2023-03-19T12:46:59.876Z,30.90
2023-03-19T12:49:40.507Z,40.28
2023-03-19T12:52:34.609Z,27.10
2023-03-19T12:55:22.819Z,30.40
2023-03-19T12:58:01.106Z,36.45
2023-03-19T13:01:08.922Z,30.33
2023-03-19T13:04:05.802Z,35.60
2023-03-19T13:06:40.107Z,58.47
2023-03-19T13:09:32.165Z,30.95
2023-03-19T13:12:10.724Z,33.95
2023-03-19T13:14:55.203Z,47.75
2023-03-19T13:17:25.292Z,103.35
2023-03-19T13:19:56.194Z,68.63
2023-03-19T13:22:33.301Z,66.35
2023-03-19T13:25:01.938Z,66.15
2023-03-19T13:27:34.740Z,51.17
2023-03-19T13:30:01.984Z,97.30
2023-03-19T13:32:48.073Z,88.88
2023-03-19T13:35:32.124Z,44.30
2023-03-19T13:38:07.136Z,86.32
2023-03-19T13:40:38.959Z,44.75
2023-03-19T13:43:28.065Z,42.25
2023-03-19T13:46:12.136Z,49.08
2023-03-19T13:48:52.177Z,47.40
2023-03-19T13:51:19.428Z,50.05
2023-03-19T13:54:08.315Z,53.65
2023-03-19T13:56:58.567Z,49.35
2023-03-19T13:59:31.284Z,44.28
2023-03-19T14:01:59.702Z,86.15
2023-03-19T14:04:37.600Z,37.60
2023-03-19T14:07:21.289Z,30.90
2023-03-19T14:09:51.616Z,36.55
2023-03-19T14:12:18.546Z,37.50
2023-03-19T14:15:20.344Z,60.80
2023-03-19T14:17:53.674Z,58.47
2023-03-19T14:20:48.374Z,54.83
2023-03-19T14:23:36.191Z,66.53
2023-03-19T14:26:17.598Z,64.45
2023-03-19T14:29:05.953Z,61.10
2023-03-19T14:31:50.634Z,61.85
2023-03-19T14:34:40.533Z,85.28
2023-03-19T14:37:44.592Z,87.65
2023-03-19T14:40:11.596Z,57.42
2023-03-19T14:43:07.179Z,55.22
2023-03-19T14:45:56.697Z,64.00
2023-03-19T14:48:38.270Z,76.63
2023-03-19T14:51:22.588Z,69.65
2023-03-19T14:54:04.708Z,36.67
2023-03-19T14:56:35.883Z,32.58
2023-03-19T14:59:07.746Z,33.22
2023-03-19T15:01:43.156Z,38.90
2023-03-19T15:04:16.012Z,31.80
2023-03-19T15:06:59.058Z,41.33
2023-03-19T15:09:32.876Z,29.42
2023-03-19T15:12:28.238Z,35.08
2023-03-19T15:15:14.106Z,28.27
2023-03-19T15:20:35.648Z,35.95
2023-03-19T15:23:13.338Z,29.48
2023-03-19T15:25:57.285Z,27.33
2023-03-19T15:28:26.554Z,46.42
2023-03-19T15:31:28.778Z,33.78
2023-03-19T15:33:54.209Z,28.27
2023-03-19T15:36:30.549Z,27.75
2023-03-19T15:39:02.591Z,28.98
2023-03-19T15:41:36.425Z,26.70
2023-03-19T15:44:08.622Z,53.72
2023-03-19T15:46:39.210Z,60.55
2023-03-19T15:49:24.725Z,50.78
2023-03-19T15:51:55.744Z,40.67
2023-03-19T15:54:23.377Z,33.90
2023-03-19T15:56:54.580Z,32.78
2023-03-19T15:59:26.658Z,32.13
2023-03-19T16:02:00.731Z,41.22
2023-03-19T16:04:30.096Z,54.65
2023-03-19T16:06:59.103Z,31.80
2023-03-19T16:09:33.193Z,49.05
2023-03-19T16:14:33.315Z,33.05
2023-03-19T16:17:03.814Z,34.72
2023-03-19T16:19:39.351Z,43.58
2023-03-19T16:22:16.068Z,39.50
2023-03-19T16:24:45.947Z,36.20
2023-03-19T16:27:16.877Z,43.05
2023-03-19T16:29:58.671Z,47.67
2023-03-19T16:32:28.494Z,44.22
2023-03-19T16:35:12.542Z,42.50
2023-03-19T16:37:48.843Z,46.40
2023-03-19T16:40:20.658Z,74.20
2023-03-19T16:42:50.976Z,88.70
2023-03-19T16:45:32.591Z,80.07
2023-03-19T16:48:03.667Z,67.28
2023-03-19T16:50:50.041Z,70.50
2023-03-19T16:53:25.595Z,77.50
2023-03-19T16:55:57.778Z,100.07
2023-03-19T16:58:42.911Z,96.07
2023-03-19T17:01:16.651Z,86.38
2023-03-19T17:03:45.369Z,65.97
2023-03-19T17:06:14.001Z,115.38
2023-03-19T17:08:42.435Z,121.57
2023-03-19T17:11:38.768Z,135.25
2023-03-19T17:14:21.945Z,171.50
2023-03-19T17:16:54.328Z,249.70
2023-03-19T17:19:24.230Z,68.47
2023-03-19T17:21:57.314Z,98.40
2023-03-19T17:24:26.203Z,85.25
2023-03-19T17:26:54.137Z,61.90
2023-03-19T17:29:23.124Z,61.42
2023-03-19T17:31:50.964Z,67.70
2023-03-19T17:34:21.619Z,88.57
2023-03-19T17:36:58.259Z,72.32
2023-03-19T17:39:26.783Z,77.22
2023-03-19T17:41:54.091Z,67.93
2023-03-19T17:44:24.375Z,64.68
2023-03-19T17:46:56.532Z,87.70
2023-03-19T17:49:29.166Z,156.15
2023-03-19T17:51:56.989Z,153.75
2023-03-19T17:54:26.823Z,137.55
2023-03-19T17:56:54.895Z,115.00
2023-03-19T17:59:24.449Z,131.05
2023-03-19T18:01:52.167Z,198.38
2023-03-19T18:04:24.524Z,80.57
2023-03-19T18:06:56.490Z,68.60
2023-03-19T18:12:01.457Z,53.08
2023-03-19T18:14:29.149Z,59.08
2023-03-19T18:16:56.318Z,52.05
2023-03-19T18:19:35.002Z,103.22
2023-03-19T18:22:16.597Z,83.00
2023-03-19T18:24:44.346Z,54.75
2023-03-19T18:27:11.587Z,57.75
2023-03-19T18:29:39.061Z,46.13
2023-03-19T18:32:13.769Z,43.63
2023-03-19T18:34:41.315Z,47.50
2023-03-19T18:37:15.371Z,37.83
2023-03-19T18:39:42.862Z,40.92
2023-03-19T18:42:14.199Z,43.92
2023-03-19T18:44:44.811Z,64.70
2023-03-19T18:47:16.279Z,38.85
2023-03-19T18:49:44.762Z,36.85
2023-03-19T18:52:16.412Z,39.05
2023-03-19T18:54:50.471Z,52.70
2023-03-19T18:57:19.983Z,71.30
2023-03-19T18:59:47.644Z,101.80
2023-03-19T19:02:25.453Z,121.63
2023-03-19T19:04:52.897Z,97.22
2023-03-19T19:07:19.962Z,58.03
2023-03-19T19:09:47.339Z,74.78
2023-03-19T19:12:18.289Z,158.63
2023-03-19T19:14:46.488Z,173.27
2023-03-19T19:17:24.608Z,193.60
2023-03-19T19:19:52.545Z,159.43
2023-03-19T19:22:20.277Z,114.65
2023-03-19T19:24:47.941Z,110.93
2023-03-19T19:27:21.897Z,73.15
2023-03-19T19:29:50.241Z,128.85
2023-03-19T19:32:21.290Z,94.22
2023-03-19T19:34:50.513Z,101.38
2023-03-19T19:37:20.675Z,73.78
2023-03-19T19:39:49.092Z,68.97
2023-03-19T19:42:18.181Z,80.47
2023-03-19T19:44:54.599Z,177.65
2023-03-19T19:47:21.748Z,129.55
2023-03-19T19:49:49.020Z,133.73
2023-03-19T19:52:18.351Z,127.32
2023-03-19T19:54:46.513Z,139.85
2023-03-19T19:57:21.309Z,214.02
2023-03-19T19:59:50.367Z,220.00
2023-03-19T20:02:28.696Z,150.85
2023-03-19T20:04:57.086Z,146.63
2023-03-19T20:07:24.305Z,105.88
2023-03-19T20:09:51.626Z,87.07
2023-03-19T20:12:22.338Z,68.95
2023-03-19T20:14:51.154Z,57.92
2023-03-19T20:17:23.453Z,60.10
2023-03-19T20:19:51.224Z,70.15
2023-03-19T20:22:18.306Z,71.13
2023-03-19T20:24:49.449Z,82.75
2023-03-19T20:27:23.463Z,177.65
2023-03-19T20:29:51.515Z,165.88
2023-03-19T20:32:29.822Z,159.32
2023-03-19T20:34:57.321Z,77.13
2023-03-19T20:37:24.450Z,60.97
2023-03-19T20:39:54.753Z,115.13
2023-03-19T20:42:29.093Z,138.88
2023-03-19T20:44:58.787Z,104.30
2023-03-19T20:47:26.010Z,107.97
2023-03-19T20:49:54.206Z,52.40
2023-03-19T20:52:21.730Z,53.05
2023-03-19T20:54:49.096Z,76.30
2023-03-19T20:57:27.409Z,79.18
2023-03-19T20:59:59.588Z,100.05
2023-03-19T21:02:27.667Z,96.32
2023-03-19T21:04:55.083Z,109.25
2023-03-19T21:07:34.544Z,185.00
2023-03-19T21:10:24.119Z,127.07
2023-03-19T21:12:51.613Z,96.65
2023-03-19T21:15:19.870Z,93.35
2023-03-19T21:17:47.060Z,106.70
2023-03-19T21:20:18.455Z,124.60
2023-03-19T21:22:49.328Z,120.25
2023-03-19T21:25:21.925Z,105.95
2023-03-19T21:27:54.031Z,137.20
2023-03-19T21:30:26.086Z,110.45
2023-03-19T21:32:54.010Z,145.35
2023-03-19T21:35:26.227Z,243.10
2023-03-19T21:37:56.010Z,226.48
2023-03-19T21:40:29.287Z,235.43
2023-03-19T21:43:00.547Z,220.35
2023-03-19T21:45:33.044Z,345.42
2023-03-19T21:48:20.262Z,311.35
2023-03-19T21:50:50.335Z,284.67
2023-03-19T21:53:18.351Z,199.70
2023-03-19T21:55:46.264Z,258.42
2023-03-19T21:58:14.896Z,162.85
2023-03-19T22:00:42.994Z,153.10
2023-03-19T22:03:18.764Z,124.07
2023-03-19T22:05:49.682Z,156.85
2023-03-19T22:08:18.252Z,166.57
2023-03-19T22:10:46.415Z,171.43
2023-03-19T22:13:26.219Z,183.63
2023-03-19T22:15:56.240Z,230.77
2023-03-19T22:18:23.431Z,308.10
2023-03-19T22:20:51.725Z,284.23
2023-03-19T22:23:20.547Z,221.68
2023-03-19T22:25:53.063Z,179.90
2023-03-19T22:28:32.632Z,181.48
2023-03-19T22:31:02.503Z,166.88
2023-03-19T22:33:29.949Z,159.55
2023-03-19T22:35:57.775Z,177.80
2023-03-19T22:38:24.780Z,197.98
2023-03-19T22:40:55.064Z,196.60
2023-03-19T22:43:34.947Z,240.60
2023-03-19T22:46:12.116Z,206.82
2023-03-19T22:48:39.281Z,276.50
2023-03-19T22:51:07.062Z,245.75
2023-03-19T22:53:36.662Z,408.48
2023-03-19T22:56:04.704Z,630.58
2023-03-19T22:58:31.830Z,285.50
2023-03-19T23:00:59.892Z,196.10
2023-03-19T23:03:30.712Z,149.00
2023-03-19T23:06:19.980Z,129.60
2023-03-19T23:08:54.835Z,152.18
2023-03-19T23:11:22.234Z,138.50
2023-03-19T23:13:49.285Z,134.77
2023-03-19T23:16:22.243Z,134.95
2023-03-19T23:18:50.193Z,149.40
2023-03-19T23:21:19.104Z,73.10
2023-03-19T23:23:46.630Z,99.47
2023-03-19T23:26:29.372Z,130.32
2023-03-19T23:29:00.680Z,118.20
2023-03-19T23:31:31.020Z,99.72
2023-03-19T23:33:57.993Z,90.72
2023-03-19T23:36:25.706Z,83.93
2023-03-19T23:38:53.681Z,81.90
2023-03-19T23:41:26.099Z,68.72
2023-03-19T23:43:54.020Z,45.50
2023-03-19T23:46:23.648Z,39.92
2023-03-19T23:48:50.752Z,46.30
2023-03-19T23:51:18.060Z,54.47
2023-03-19T23:53:47.630Z,67.32
2023-03-19T23:56:23.684Z,44.88
2023-03-19T23:58:52.460Z,40.13
